Time;durP1;ratioP1;P1;durP2;ratioP2;P2;SDS_P1;SDS_P2;PMS_P1;PMS_P2;Temp;Humidity;BMP_temperature;BMP_pressure;BME280_temperature;BME280_humidity;BME280_pressure;Samples;Min_cycle;Max_cycle;Signal;HPM_P1;HPM_P2
2023/11/08 00:01:00;;;;;;;8.18;1.30;;;12.50;99.90;;;;;;10518300;28;20110;-36
2023/11/08 00:06:04;;;;;;;3.05;0.98;;;12.60;99.90;;;;;;10518133;28;20085;-35
2023/11/08 00:11:06;;;;;;;6.60;1.23;;;12.30;99.90;;;;;;10511887;28;20048;-40
2023/11/08 00:16:08;;;;;;;7.70;1.90;;;12.00;99.90;;;;;;10517629;28;20098;-33
2023/11/08 00:21:11;;;;;;;7.90;1.27;;;11.90;99.90;;;;;;10515449;28;20028;-33
2023/11/08 00:26:13;;;;;;;7.25;1.23;;;11.70;99.90;;;;;;10520249;28;20071;-38
2023/11/08 00:31:15;;;;;;;11.88;1.77;;;12.00;99.90;;;;;;10526273;28;20539;-33
2023/11/08 00:36:18;;;;;;;10.10;1.50;;;12.20;99.90;;;;;;10527912;28;20076;-36
2023/11/08 00:41:20;;;;;;;9.82;1.67;;;11.90;99.90;;;;;;10524576;28;20055;-31
2023/11/08 00:46:22;;;;;;;10.40;1.15;;;12.30;99.90;;;;;;10527213;28;20056;-32
2023/11/08 00:51:27;;;;;;;5.82;1.10;;;12.30;99.90;;;;;;10523609;28;20047;-41
2023/11/08 00:56:29;;;;;;;3.40;1.23;;;12.00;99.90;;;;;;10525315;28;20050;-34
2023/11/08 01:01:35;;;;;;;4.90;1.48;;;12.20;99.90;;;;;;10527428;28;20059;-32
2023/11/08 01:06:38;;;;;;;5.60;1.30;;;11.90;99.90;;;;;;10523052;28;20463;-37
2023/11/08 01:11:41;;;;;;;12.95;1.17;;;12.00;99.90;;;;;;10523262;28;20039;-33
2023/11/08 01:16:45;;;;;;;4.90;1.05;;;12.00;99.90;;;;;;10526066;28;20389;-38
2023/11/08 01:21:49;;;;;;;6.50;1.13;;;12.40;99.90;;;;;;10529688;28;20158;-37
2023/11/08 01:26:51;;;;;;;3.20;1.10;;;12.20;99.90;;;;;;10525293;28;20062;-32
2023/11/08 01:31:54;;;;;;;17.43;2.13;;;12.30;99.90;;;;;;10525892;28;20059;-36
2023/11/08 01:36:57;;;;;;;14.10;1.45;;;12.00;99.90;;;;;;10523991;28;20125;-33
2023/11/08 01:41:59;;;;;;;2.92;0.80;;;12.10;99.90;;;;;;10521309;28;20083;-34
2023/11/08 01:47:03;;;;;;;6.20;1.43;;;11.80;99.90;;;;;;10527529;28;20044;-40
2023/11/08 01:52:10;;;;;;;8.57;1.00;;;12.00;99.90;;;;;;10521266;28;20036;-31
2023/11/08 01:57:13;;;;;;;7.72;1.05;;;11.80;99.90;;;;;;10523642;28;20046;-31
2023/11/08 02:02:15;;;;;;;5.60;1.25;;;12.20;99.90;;;;;;10521578;28;20551;-36
2023/11/08 02:07:18;;;;;;;2.25;0.90;;;12.00;99.90;;;;;;10520774;28;20119;-41
2023/11/08 02:12:20;;;;;;;5.78;1.10;;;12.30;99.90;;;;;;10521706;28;20131;-37
2023/11/08 02:17:22;;;;;;;9.57;1.83;;;11.90;99.90;;;;;;10523651;28;20063;-38
2023/11/08 02:22:26;;;;;;;3.05;1.08;;;12.20;99.90;;;;;;10521364;28;20055;-38
2023/11/08 02:27:29;;;;;;;4.28;1.30;;;12.20;99.90;;;;;;10523113;28;20048;-36
2023/11/08 02:32:34;;;;;;;14.10;2.45;;;12.70;99.90;;;;;;10525909;28;20071;-34
2023/11/08 02:37:36;;;;;;;5.97;1.63;;;12.00;99.90;;;;;;10520912;28;20047;-37
2023/11/08 02:42:40;;;;;;;6.22;1.40;;;12.20;99.90;;;;;;10521052;28;21141;-41
2023/11/08 02:47:42;;;;;;;6.10;1.63;;;12.40;99.90;;;;;;10525727;28;20101;-31
2023/11/08 02:52:44;;;;;;;2.97;0.90;;;12.40;99.90;;;;;;10520073;28;20089;-34
2023/11/08 02:57:47;;;;;;;3.10;0.80;;;12.50;99.90;;;;;;10521620;28;20058;-31
2023/11/08 03:02:51;;;;;;;10.00;1.63;;;13.10;99.90;;;;;;10522253;28;20124;-34
2023/11/08 03:07:54;;;;;;;4.85;1.10;;;13.10;99.90;;;;;;10516772;28;20105;-44
2023/11/08 03:12:57;;;;;;;2.33;0.80;;;13.30;99.90;;;;;;10519249;28;20051;-39
2023/11/08 03:17:59;;;;;;;2.60;1.20;;;15.00;99.90;;;;;;10520170;28;20047;-43
2023/11/08 03:23:01;;;;;;;12.70;2.47;;;14.90;99.90;;;;;;10517939;28;20415;-32
2023/11/08 03:28:05;;;;;;;2.85;1.23;;;14.10;99.90;;;;;;10520858;28;20124;-34
2023/11/08 03:33:07;;;;;;;4.72;1.10;;;15.00;99.90;;;;;;10524609;28;20052;-31
2023/11/08 03:38:08;;;;;;;8.87;1.73;;;15.80;99.50;;;;;;10518309;28;21065;-32
2023/11/08 03:43:12;;;;;;;10.17;2.00;;;15.50;99.00;;;;;;10518204;28;20120;-32
2023/11/08 03:48:14;;;;;;;6.70;1.60;;;14.90;99.90;;;;;;10522225;28;20445;-33
2023/11/08 03:53:16;;;;;;;8.30;2.00;;;14.20;99.90;;;;;;10518539;28;20038;-31
2023/11/08 04:15:31;;;;;;;4.75;1.52;;;12.20;99.90;;;;;;10553731;27;20113;-32
2023/11/08 04:20:33;;;;;;;4.25;1.70;;;13.40;99.90;;;;;;10578102;28;20567;-35
2023/11/08 04:25:37;;;;;;;12.15;2.10;;;12.30;99.90;;;;;;10580123;28;20058;-49
2023/11/08 04:30:40;;;;;;;9.27;1.90;;;12.00;99.90;;;;;;10569046;28;20053;-33
2023/11/08 04:35:41;;;;;;;6.43;1.65;;;12.10;99.90;;;;;;10577432;27;20140;-32
2023/11/08 04:40:43;;;;;;;16.63;2.65;;;12.20;99.90;;;;;;10578808;27;20116;-36
2023/11/08 04:45:46;;;;;;;5.97;1.65;;;11.80;99.90;;;;;;10579232;27;20167;-35
2023/11/08 04:50:48;;;;;;;8.20;1.83;;;12.40;99.90;;;;;;10579558;28;20059;-40
2023/11/08 04:55:50;;;;;;;13.45;2.05;;;12.00;99.90;;;;;;10576871;27;20452;-36
2023/11/08 05:00:53;;;;;;;12.88;1.75;;;11.30;99.90;;;;;;10577711;28;20036;-45
2023/11/08 05:05:55;;;;;;;12.30;1.75;;;12.20;99.90;;;;;;10570173;28;20039;-37
2023/11/08 05:10:57;;;;;;;9.88;1.67;;;12.60;99.90;;;;;;10567936;27;20055;-35
2023/11/08 05:16:00;;;;;;;9.95;1.40;;;12.60;99.90;;;;;;10571994;27;20043;-36
2023/11/08 05:21:02;;;;;;;8.07;1.33;;;12.00;99.90;;;;;;10576653;27;20138;-38
2023/11/08 05:26:04;;;;;;;6.22;1.23;;;11.60;99.90;;;;;;10539672;27;20051;-33
2023/11/08 05:31:08;;;;;;;5.35;1.10;;;11.80;99.90;;;;;;10544107;27;20089;-36
2023/11/08 05:36:10;;;;;;;;;;;12.40;99.90;;;;;;10547761;28;20062;-32
2023/11/08 05:41:12;;;;;;;8.82;2.20;;;12.40;99.90;;;;;;10533396;28;20253;-34
2023/11/08 05:46:16;;;;;;;3.40;0.95;;;11.40;99.90;;;;;;10537242;28;20050;-39
2023/11/08 05:51:19;;;;;;;5.25;1.00;;;11.60;99.90;;;;;;10534687;28;20058;-38
2023/11/08 05:56:22;;;;;;;;;;;12.50;99.90;;;;;;10537192;28;20081;-39
2023/11/08 06:01:25;;;;;;;8.48;2.40;;;11.70;99.90;;;;;;10545461;28;19961;-44
2023/11/08 06:06:27;;;;;;;6.80;1.63;;;12.00;99.90;;;;;;10529233;28;20131;-42
2023/11/08 06:11:29;;;;;;;8.85;1.50;;;11.90;99.90;;;;;;10541889;28;20169;-36
2023/11/08 06:16:33;;;;;;;5.20;1.10;;;12.30;99.90;;;;;;10530864;28;20195;-34
2023/11/08 06:21:35;;;;;;;11.05;1.15;;;12.30;99.90;;;;;;10542676;28;20043;-38
2023/11/08 06:26:37;;;;;;;3.90;0.70;;;12.30;99.90;;;;;;10543939;28;20054;-35
2023/11/08 06:31:41;;;;;;;2.33;1.10;;;12.90;99.90;;;;;;10532134;28;20108;-35
2023/11/08 06:36:43;;;;;;;1.88;1.10;;;13.80;99.90;;;;;;10535499;28;20058;-32
2023/11/08 06:41:45;;;;;;;1.23;0.40;;;13.40;99.90;;;;;;10533386;28;20571;-39
2023/11/08 06:46:49;;;;;;;1.50;1.08;;;15.10;99.90;;;;;;10535499;28;20565;-40
2023/11/08 06:51:51;;;;;;;3.95;0.70;;;14.80;99.90;;;;;;10536045;28;20153;-41
2023/11/08 06:56:53;;;;;;;3.08;0.60;;;13.30;99.90;;;;;;10540757;28;20040;-41
2023/11/08 07:01:56;;;;;;;1.40;0.70;;;12.90;99.90;;;;;;10533339;28;20036;-39
2023/11/08 07:07:00;;;;;;;3.88;0.80;;;13.50;99.90;;;;;;10536330;28;20047;-41
2023/11/08 07:12:03;;;;;;;2.72;0.93;;;12.40;99.90;;;;;;10531848;28;20105;-38
2023/11/08 07:17:06;;;;;;;2.92;1.00;;;12.60;99.90;;;;;;10535365;28;20391;-50
2023/11/08 07:22:08;;;;;;;4.30;0.93;;;13.20;99.90;;;;;;10535932;28;20135;-37
2023/11/08 07:27:10;;;;;;;1.90;0.80;;;12.50;99.90;;;;;;10537709;28;20039;-31
2023/11/08 07:32:14;;;;;;;4.50;1.00;;;12.60;99.90;;;;;;10537169;28;20043;-38
2023/11/08 07:37:16;;;;;;;6.05;0.90;;;12.40;99.90;;;;;;10525679;28;20050;-35
2023/11/08 07:42:18;;;;;;;3.40;1.48;;;11.70;99.90;;;;;;10535412;28;20104;-38
2023/11/08 07:47:21;;;;;;;0.77;0.57;;;11.40;99.90;;;;;;10525562;28;20051;-31
2023/11/08 07:52:24;;;;;;;5.43;0.80;;;13.50;99.90;;;;;;10522433;28;20423;-46
2023/11/08 07:57:26;;;;;;;1.35;0.60;;;13.10;99.90;;;;;;10533012;28;20046;-37
2023/11/08 08:02:30;;;;;;;4.25;1.08;;;12.00;99.90;;;;;;10518318;28;20068;-38
2023/11/08 08:07:32;;;;;;;2.10;1.02;;;11.70;99.90;;;;;;10519531;28;20520;-33
2023/11/08 08:12:34;;;;;;;3.53;1.25;;;12.20;99.90;;;;;;10524626;28;20381;-41
2023/11/08 08:17:37;;;;;;;6.17;1.27;;;13.90;99.90;;;;;;10532739;28;20068;-36
2023/11/08 08:22:39;;;;;;;6.78;1.33;;;13.00;99.90;;;;;;10530229;28;20084;-33
2023/11/08 08:27:42;;;;;;;2.63;0.93;;;12.50;99.90;;;;;;10527664;28;20107;-50
2023/11/08 08:32:45;;;;;;;;;;;12.30;99.90;;;;;;10523786;28;20074;-50
2023/11/08 08:37:47;;;;;;;7.53;1.60;;;13.50;99.90;;;;;;10525498;28;19973;-39
2023/11/08 08:42:50;;;;;;;3.80;1.20;;;13.90;99.90;;;;;;10531498;28;20079;-32
2023/11/08 08:47:53;;;;;;;6.43;1.48;;;13.80;99.90;;;;;;10528371;28;20060;-34
2023/11/08 08:52:55;;;;;;;8.43;1.52;;;12.50;99.90;;;;;;10533350;28;20127;-40
2023/11/08 08:57:57;;;;;;;6.68;1.50;;;11.70;99.90;;;;;;10536687;28;20493;-45
2023/11/08 09:03:01;;;;;;;7.80;1.23;;;12.30;99.90;;;;;;10537960;28;20452;-52
2023/11/08 09:08:03;;;;;;;11.13;2.00;;;13.40;99.90;;;;;;10546092;28;20644;-37
2023/11/08 09:13:05;;;;;;;9.07;1.87;;;13.50;99.90;;;;;;10531926;28;20075;-34
2023/11/08 09:18:08;;;;;;;7.72;2.25;;;12.30;99.90;;;;;;10535142;28;20446;-38
2023/11/08 09:23:10;;;;;;;12.45;2.28;;;12.00;99.90;;;;;;10542127;28;20476;-36
2023/11/08 09:28:12;;;;;;;10.68;2.00;;;12.50;99.90;;;;;;10537248;28;20395;-39
2023/11/08 09:33:15;;;;;;;5.68;1.77;;;12.20;99.90;;;;;;10544238;28;20052;-37
2023/11/08 09:38:17;;;;;;;7.80;2.13;;;13.40;99.90;;;;;;10537515;28;20134;-35
2023/11/08 09:43:22;;;;;;;6.30;1.80;;;13.20;99.90;;;;;;10541952;28;20053;-33
2023/11/08 09:48:25;;;;;;;6.25;2.63;;;13.50;99.90;;;;;;10538935;28;20047;-39
2023/11/08 09:53:27;;;;;;;11.40;2.47;;;13.40;99.90;;;;;;10540401;28;20046;-35
2023/11/08 09:58:32;;;;;;;9.18;2.45;;;12.50;99.90;;;;;;10546913;28;20093;-35
2023/11/08 10:03:38;;;;;;;6.28;2.28;;;13.20;99.90;;;;;;10531469;28;20040;-36
2023/11/08 10:08:40;;;;;;;9.73;3.78;;;12.90;99.90;;;;;;10537352;28;20043;-35
2023/11/08 10:13:43;;;;;;;9.88;2.25;;;13.00;99.90;;;;;;10532903;28;20412;-33
2023/11/08 10:18:54;;;;;;;14.82;2.85;;;13.80;99.90;;;;;;10541248;28;20040;-35
2023/11/08 10:24:09;;;;;;;9.27;2.05;;;12.90;99.90;;;;;;10535258;28;20044;-34
2023/11/08 10:29:12;;;;;;;3.42;1.83;;;14.60;98.20;;;;;;10532478;28;20032;-37
2023/11/08 10:34:16;;;;;;;7.85;2.17;;;14.30;99.90;;;;;;10540382;28;20039;-34
2023/11/08 10:39:17;;;;;;;5.88;1.98;;;14.50;99.90;;;;;;10539271;28;20044;-39
2023/11/08 10:44:22;;;;;;;2.90;1.73;;;14.50;99.90;;;;;;10541833;28;20039;-39
2023/11/08 10:49:26;;;;;;;3.30;1.35;;;15.20;99.90;;;;;;10534260;28;20097;-35
2023/11/08 10:54:30;;;;;;;9.95;2.08;;;14.10;99.90;;;;;;10538261;28;20132;-42
2023/11/08 10:59:35;;;;;;;10.75;1.88;;;14.80;98.90;;;;;;10546155;28;20131;-39
2023/11/08 11:04:39;;;;;;;4.57;1.60;;;15.30;98.10;;;;;;10539539;28;20498;-40
2023/11/08 11:09:41;;;;;;;3.03;0.88;;;15.40;98.70;;;;;;10535868;28;20385;-32
2023/11/08 11:14:46;;;;;;;6.90;1.33;;;14.80;99.90;;;;;;10540240;28;20146;-32
2023/11/08 11:19:53;;;;;;;1.48;0.93;;;15.40;98.80;;;;;;10543722;28;20511;-47
2023/11/08 11:24:57;;;;;;;8.63;1.60;;;15.90;98.30;;;;;;10535648;28;20063;-31
2023/11/08 11:30:27;;;;;;;9.13;1.58;;;15.10;99.90;;;;;;10535637;28;20476;-33
2023/11/08 11:35:58;;;;;;;4.35;1.38;;;14.80;99.70;;;;;;10541087;28;20703;-32
2023/11/08 11:41:21;;;;;;;1.55;0.75;;;15.60;98.60;;;;;;10537408;28;20475;-33
2023/11/08 11:46:23;;;;;;;5.63;1.52;;;15.60;98.00;;;;;;10535042;28;20075;-33
2023/11/08 11:51:26;;;;;;;13.63;2.20;;;15.50;98.50;;;;;;10542431;28;20093;-33
2023/11/08 11:56:28;;;;;;;5.07;1.30;;;15.00;99.20;;;;;;10536437;28;21113;-41
2023/11/08 12:01:30;;;;;;;8.13;2.43;;;15.90;97.70;;;;;;10534083;28;20044;-40
2023/11/08 12:06:34;;;;;;;3.95;1.30;;;15.00;97.30;;;;;;10523403;28;20039;-31
2023/11/08 12:11:36;;;;;;;3.20;1.17;;;16.40;96.60;;;;;;10529612;28;20090;-36
2023/11/08 12:16:41;;;;;;;3.03;1.40;;;15.90;98.10;;;;;;10529104;28;20578;-38
2023/11/08 12:21:46;;;;;;;4.68;1.73;;;15.90;97.60;;;;;;10541190;28;20056;-34
2023/11/08 12:26:48;;;;;;;4.15;2.70;;;15.20;98.30;;;;;;10538792;28;20070;-35
2023/11/08 12:31:51;;;;;;;4.68;1.65;;;14.70;99.90;;;;;;10536046;28;20048;-34
2023/11/08 12:36:54;;;;;;;;;;;15.60;99.40;;;;;;10540899;28;20678;-37
2023/11/08 12:41:56;;;;;;;2.80;1.45;;;15.80;96.20;;;;;;10524979;28;20439;-35
2023/11/08 12:46:59;;;;;;;6.13;1.97;;;15.90;98.60;;;;;;10543263;28;23621;-34
2023/11/08 12:52:05;;;;;;;2.28;1.33;;;15.60;96.90;;;;;;10550072;28;20035;-41
2023/11/08 12:57:06;;;;;;;6.80;2.40;;;16.30;96.50;;;;;;10546820;28;20120;-37
2023/11/08 13:02:14;;;;;;;3.20;1.30;;;16.60;95.10;;;;;;10545972;28;20101;-30
2023/11/08 13:07:17;;;;;;;3.42;1.80;;;16.70;94.90;;;;;;10532055;28;20066;-32
2023/11/08 13:12:19;;;;;;;1.98;0.82;;;16.80;94.20;;;;;;10542449;27;20434;-33
2023/11/08 13:17:22;;;;;;;2.60;1.10;;;17.10;93.20;;;;;;10529771;28;20039;-40
2023/11/08 13:22:25;;;;;;;3.55;1.02;;;16.70;94.40;;;;;;10530423;28;20040;-38
2023/11/08 13:27:27;;;;;;;3.30;0.95;;;17.10;93.50;;;;;;10541054;28;20048;-38
2023/11/08 13:32:31;;;;;;;4.80;1.63;;;16.60;93.90;;;;;;10543422;28;20052;-41
2023/11/08 13:37:35;;;;;;;5.05;1.30;;;16.70;93.80;;;;;;10532373;28;20046;-34
2023/11/08 13:42:37;;;;;;;5.50;1.40;;;16.60;94.70;;;;;;10543881;28;20048;-31
2023/11/08 13:47:39;;;;;;;;;;;16.80;94.70;;;;;;10536154;28;20040;-33
2023/11/08 13:52:43;;;;;;;2.97;1.30;;;15.70;97.70;;;;;;10538935;28;20007;-34
2023/11/08 13:57:45;;;;;;;3.42;1.45;;;16.30;96.80;;;;;;10538729;28;20055;-31
2023/11/08 14:02:48;;;;;;;3.60;1.77;;;16.20;96.70;;;;;;10539504;28;20117;-35
2023/11/08 14:07:51;;;;;;;;;;;15.80;99.10;;;;;;10540303;28;20121;-41
2023/11/08 14:12:53;;;;;;;3.25;1.35;;;16.70;94.80;;;;;;10530536;28;19970;-43
2023/11/08 14:17:55;;;;;;;2.83;1.20;;;16.50;96.00;;;;;;10527808;28;20040;-47
2023/11/08 14:22:58;;;;;;;10.10;1.70;;;16.10;95.90;;;;;;10530956;27;20036;-44
2023/11/08 14:28:01;;;;;;;2.20;0.93;;;15.90;95.70;;;;;;10534603;28;20520;-35
2023/11/08 14:33:03;;;;;;;3.67;1.55;;;16.50;96.40;;;;;;10535403;28;20066;-36
2023/11/08 14:38:06;;;;;;;3.50;1.00;;;16.10;96.10;;;;;;10533199;28;20093;-38
2023/11/08 14:43:09;;;;;;;2.38;1.02;;;16.00;97.60;;;;;;10536953;27;20497;-32
2023/11/08 14:48:10;;;;;;;4.72;1.13;;;15.90;97.90;;;;;;10528080;28;20455;-36
2023/11/08 14:53:15;;;;;;;3.47;1.37;;;16.50;96.20;;;;;;10536109;28;20036;-36
2023/11/08 14:58:17;;;;;;;2.25;1.00;;;16.20;96.30;;;;;;10541320;28;20051;-36
2023/11/08 15:03:19;;;;;;;6.60;1.40;;;16.60;96.50;;;;;;10539381;28;20676;-31
2023/11/08 15:08:23;;;;;;;5.65;1.65;;;15.60;98.40;;;;;;10540957;28;20036;-38
2023/11/08 15:13:25;;;;;;;6.57;1.38;;;15.30;99.90;;;;;;10527636;28;20129;-36
2023/11/08 15:18:30;;;;;;;6.50;1.43;;;15.30;99.90;;;;;;10530868;28;20043;-34
2023/11/08 15:23:33;;;;;;;3.15;1.40;;;15.10;99.90;;;;;;10533152;28;20040;-34
2023/11/08 15:28:35;;;;;;;3.25;1.33;;;14.40;99.90;;;;;;10525641;28;20067;-36
2023/11/08 15:33:37;;;;;;;3.00;1.10;;;13.90;99.90;;;;;;10534091;28;20047;-35
2023/11/08 15:38:40;;;;;;;3.85;1.70;;;13.90;99.90;;;;;;10531859;28;20594;-36
2023/11/08 15:43:42;;;;;;;1.58;1.10;;;14.40;99.90;;;;;;10526685;28;20122;-43
2023/11/08 15:48:44;;;;;;;2.50;1.20;;;14.10;99.90;;;;;;10534104;28;20117;-32
2023/11/08 15:53:47;;;;;;;3.67;1.48;;;13.20;99.90;;;;;;10521669;28;20051;-41
2023/11/08 15:58:52;;;;;;;2.72;1.20;;;14.70;99.90;;;;;;10540178;28;20113;-41
2023/11/08 16:03:54;;;;;;;3.28;1.25;;;14.40;99.90;;;;;;10539950;28;20521;-38
2023/11/08 16:08:58;;;;;;;2.33;0.98;;;15.00;99.90;;;;;;10542244;28;20035;-38
2023/11/08 16:14:00;;;;;;;1.85;1.27;;;15.00;99.90;;;;;;10528481;28;20567;-33
2023/11/08 16:19:02;;;;;;;3.08;1.33;;;14.30;99.90;;;;;;10528935;28;20125;-36
2023/11/08 16:24:07;;;;;;;1.75;0.85;;;14.00;99.90;;;;;;10526292;28;20156;-42
2023/11/08 16:29:09;;;;;;;2.22;1.00;;;14.40;99.90;;;;;;10532030;28;20051;-35
2023/11/08 16:34:11;;;;;;;3.70;1.40;;;14.90;99.90;;;;;;10526081;28;20098;-37
2023/11/08 16:39:15;;;;;;;2.53;1.37;;;14.00;99.90;;;;;;10521574;28;20146;-31
2023/11/08 16:44:17;;;;;;;3.90;1.25;;;14.20;99.90;;;;;;10529940;28;20035;-33
2023/11/08 16:49:21;;;;;;;1.23;0.95;;;13.30;99.90;;;;;;10530140;28;20048;-37
2023/11/08 16:54:24;;;;;;;2.03;0.75;;;14.30;99.90;;;;;;10530490;28;20472;-45
2023/11/08 16:59:26;;;;;;;2.88;1.10;;;14.10;99.90;;;;;;10529232;28;20570;-32
2023/11/08 17:04:28;;;;;;;1.60;0.90;;;13.50;99.90;;;;;;10531039;28;20125;-38
2023/11/08 17:09:35;;;;;;;1.25;0.77;;;13.80;99.90;;;;;;10536247;28;20178;-49
2023/11/08 17:14:37;;;;;;;4.93;1.50;;;14.40;99.90;;;;;;10527398;28;20060;-39
2023/11/08 17:19:39;;;;;;;5.53;1.73;;;13.40;99.90;;;;;;10532432;28;20039;-33
2023/11/08 17:24:43;;;;;;;3.45;1.30;;;13.70;99.90;;;;;;10542306;28;20051;-39
2023/11/08 17:29:44;;;;;;;3.33;1.73;;;13.90;99.90;;;;;;10545350;28;20112;-33
2023/11/08 17:34:47;;;;;;;5.78;2.15;;;14.10;99.90;;;;;;10551411;28;20141;-37
2023/11/08 17:39:52;;;;;;;3.40;1.50;;;14.60;99.90;;;;;;10543781;28;21117;-31
2023/11/08 17:44:53;;;;;;;2.78;2.22;;;14.40;99.90;;;;;;10532961;28;20538;-41
2023/11/08 17:49:55;;;;;;;2.03;1.50;;;13.40;99.90;;;;;;10538538;28;20521;-34
2023/11/08 17:54:59;;;;;;;5.35;1.08;;;13.70;99.90;;;;;;10543432;28;20138;-34
2023/11/08 18:00:02;;;;;;;6.93;1.67;;;13.90;99.90;;;;;;10538929;28;20109;-45
2023/11/08 18:05:06;;;;;;;2.47;1.48;;;14.10;99.90;;;;;;10531133;28;20039;-37
2023/11/08 18:10:10;;;;;;;4.65;2.08;;;13.30;99.90;;;;;;10549992;28;20574;-38
2023/11/08 18:15:13;;;;;;;3.72;1.60;;;13.30;99.90;;;;;;10540896;28;20502;-37
2023/11/08 18:20:15;;;;;;;2.92;1.52;;;12.60;99.90;;;;;;10539459;28;20077;-35
2023/11/08 18:25:19;;;;;;;4.10;1.77;;;12.40;99.90;;;;;;10535092;28;20481;-46
2023/11/08 18:30:24;;;;;;;2.92;1.80;;;13.90;99.90;;;;;;10534845;28;20051;-34
2023/11/08 18:35:26;;;;;;;3.92;2.33;;;12.90;99.90;;;;;;10531301;28;20048;-35
2023/11/08 18:40:30;;;;;;;7.30;2.80;;;12.30;99.90;;;;;;10534867;28;20048;-43
2023/11/08 18:45:32;;;;;;;2.60;1.90;;;11.90;99.90;;;;;;10535574;28;20529;-34
2023/11/08 18:50:34;;;;;;;4.22;1.85;;;12.60;99.90;;;;;;10531663;28;20151;-32
2023/11/08 18:55:37;;;;;;;5.13;2.60;;;12.30;99.90;;;;;;10528307;28;20063;-35
2023/11/08 19:00:38;;;;;;;5.53;2.08;;;12.50;99.90;;;;;;10530910;28;20217;-37
2023/11/08 19:05:40;;;;;;;2.30;1.70;;;12.00;99.90;;;;;;10535131;28;20910;-36
2023/11/08 19:10:43;;;;;;;3.50;2.25;;;12.40;99.90;;;;;;10535753;28;20465;-37
2023/11/08 19:15:45;;;;;;;2.92;1.63;;;13.10;99.90;;;;;;10533008;28;20050;-39
2023/11/08 19:20:48;;;;;;;4.33;1.60;;;14.90;99.90;;;;;;10535060;28;20063;-33
2023/11/08 19:25:51;;;;;;;3.78;1.70;;;13.10;99.90;;;;;;10538624;28;20494;-37
2023/11/08 19:30:54;;;;;;;3.28;1.45;;;13.50;99.90;;;;;;10534053;28;20163;-34
2023/11/08 19:35:58;;;;;;;2.47;1.38;;;14.10;99.90;;;;;;10542246;28;20124;-38
2023/11/08 19:41:02;;;;;;;5.07;1.88;;;13.60;99.90;;;;;;10534091;28;20101;-38
2023/11/08 19:46:06;;;;;;;2.97;1.90;;;12.70;99.90;;;;;;10540344;28;20035;-34
2023/11/08 19:51:08;;;;;;;3.35;1.58;;;13.10;99.90;;;;;;10509914;28;20062;-35
2023/11/08 19:56:12;;;;;;;2.90;1.30;;;14.40;99.90;;;;;;10530138;28;20166;-32
2023/11/08 20:01:14;;;;;;;3.10;1.45;;;14.60;99.90;;;;;;10530113;28;20040;-34
2023/11/08 20:06:16;;;;;;;3.03;1.42;;;13.50;99.90;;;;;;10536000;28;20445;-31
2023/11/08 20:11:19;;;;;;;5.70;1.63;;;13.90;99.90;;;;;;10531471;28;20154;-39
2023/11/08 20:16:21;;;;;;;1.85;0.95;;;13.80;99.90;;;;;;10521360;28;20582;-50
2023/11/08 20:21:25;;;;;;;5.47;1.65;;;14.30;99.90;;;;;;10535916;28;20800;-37
2023/11/08 20:26:30;;;;;;;4.05;1.23;;;14.00;99.90;;;;;;10534433;28;20085;-31
2023/11/08 20:31:32;;;;;;;2.80;1.33;;;13.40;99.90;;;;;;10532338;28;20051;-37
2023/11/08 20:36:34;;;;;;;2.03;1.50;;;14.00;99.90;;;;;;10533265;28;20050;-38
2023/11/08 20:41:37;;;;;;;3.30;1.05;;;14.40;99.90;;;;;;10539402;28;20039;-42
2023/11/08 20:46:39;;;;;;;1.65;1.20;;;14.50;99.90;;;;;;10528870;28;20132;-36
2023/11/08 20:51:41;;;;;;;2.50;1.40;;;13.70;99.90;;;;;;10525578;28;20093;-37
2023/11/08 20:56:44;;;;;;;1.80;1.10;;;13.30;99.90;;;;;;10535979;28;20408;-44
2023/11/08 21:01:46;;;;;;;4.93;1.05;;;13.50;99.90;;;;;;10538995;28;20039;-51
2023/11/08 21:06:48;;;;;;;4.60;1.58;;;12.70;99.90;;;;;;10535960;28;20106;-33
2023/11/08 21:11:51;;;;;;;2.70;1.35;;;12.90;99.90;;;;;;10540445;28;20138;-35
2023/11/08 21:16:53;;;;;;;2.58;1.63;;;13.30;99.90;;;;;;10539409;28;20093;-35
2023/11/08 21:21:55;;;;;;;6.15;1.52;;;12.90;99.90;;;;;;10538948;28;20047;-39
2023/11/08 21:26:59;;;;;;;3.92;1.55;;;13.10;99.90;;;;;;10539114;28;20056;-42
2023/11/08 21:32:01;;;;;;;3.47;1.48;;;13.40;99.90;;;;;;10544570;28;20476;-37
2023/11/08 21:37:03;;;;;;;2.83;1.38;;;13.40;99.90;;;;;;10530116;28;20070;-38
2023/11/08 21:42:07;;;;;;;3.08;1.85;;;12.70;99.90;;;;;;10540376;28;20048;-31
2023/11/08 21:47:09;;;;;;;5.18;1.38;;;12.80;99.90;;;;;;10537668;28;20050;-37
2023/11/08 21:52:11;;;;;;;4.90;1.50;;;13.00;99.90;;;;;;10529088;28;20063;-34
2023/11/08 21:57:15;;;;;;;3.95;1.10;;;14.10;99.90;;;;;;10540164;27;20062;-39
2023/11/08 22:02:17;;;;;;;5.30;1.20;;;13.20;99.90;;;;;;10538923;28;20036;-30
2023/11/08 22:07:19;;;;;;;6.23;1.33;;;12.50;99.90;;;;;;10533497;28;20498;-37
2023/11/08 22:12:23;;;;;;;5.90;1.73;;;12.80;99.90;;;;;;10538982;28;20488;-35
2023/11/08 22:17:25;;;;;;;1.75;1.13;;;13.70;99.90;;;;;;10540629;28;20046;-34
2023/11/08 22:22:27;;;;;;;3.30;1.27;;;13.60;99.90;;;;;;10541028;28;20047;-40
2023/11/08 22:27:30;;;;;;;8.17;1.33;;;12.90;99.90;;;;;;10540148;28;20050;-31
2023/11/08 22:32:32;;;;;;;5.97;2.10;;;13.40;99.90;;;;;;10539905;28;20071;-34
2023/11/08 22:37:34;;;;;;;3.10;1.20;;;14.10;99.90;;;;;;10540693;28;20050;-32
2023/11/08 22:42:38;;;;;;;4.27;1.50;;;13.60;99.90;;;;;;10534529;28;20473;-37
2023/11/08 22:47:41;;;;;;;5.82;1.30;;;13.30;99.90;;;;;;10501884;28;20123;-41
2023/11/08 22:52:44;;;;;;;4.30;1.48;;;13.90;99.90;;;;;;10531747;27;20091;-30
2023/11/08 22:57:47;;;;;;;2.42;1.50;;;13.70;99.90;;;;;;10527549;28;20048;-32
2023/11/08 23:02:49;;;;;;;3.58;1.60;;;13.00;99.90;;;;;;10527312;28;20067;-39
2023/11/08 23:07:52;;;;;;;5.87;1.50;;;14.00;99.90;;;;;;10530656;28;20053;-36
2023/11/08 23:12:55;;;;;;;;;;;13.20;99.90;;;;;;10534718;28;20192;-36
2023/11/08 23:17:59;;;;;;;2.03;1.38;;;12.80;99.90;;;;;;10527585;28;19920;-35
2023/11/08 23:23:01;;;;;;;4.32;1.30;;;14.70;99.90;;;;;;10535945;28;20510;-39
2023/11/08 23:28:04;;;;;;;8.20;1.70;;;14.20;99.90;;;;;;10538545;28;20159;-43
2023/11/08 23:33:07;;;;;;;2.92;1.58;;;13.50;99.90;;;;;;10540904;28;20047;-39
2023/11/08 23:38:09;;;;;;;1.88;1.63;;;13.10;99.90;;;;;;10537158;28;20048;-34
2023/11/08 23:43:13;;;;;;;3.63;1.83;;;13.50;99.90;;;;;;10534082;28;20036;-38
2023/11/08 23:48:14;;;;;;;5.10;1.60;;;13.30;99.90;;;;;;10530006;28;20052;-35
2023/11/08 23:53:16;;;;;;;2.72;1.95;;;13.70;99.90;;;;;;10535853;28;20047;-35
2023/11/08 23:58:20;;;;;;;2.83;1.93;;;13.20;99.90;;;;;;10539849;28;20515;-37
